sensor_id;sensor_type;location;lat;lon;timestamp;temperature;humidity
41838;DHT22;27511;52.042;5.178;2022-12-29T00:01:32;14.00;99.90
41838;DHT22;27511;52.042;5.178;2022-12-29T00:03:58;14.10;99.90
41838;DHT22;27511;52.042;5.178;2022-12-29T00:06:24;13.90;99.90
41838;DHT22;27511;52.042;5.178;2022-12-29T00:08:50;14.00;99.90
41838;DHT22;27511;52.042;5.178;2022-12-29T00:11:23;14.00;99.90
41838;DHT22;27511;52.042;5.178;2022-12-29T00:13:49;14.10;99.90
41838;DHT22;27511;52.042;5.178;2022-12-29T00:16:33;14.10;99.90
41838;DHT22;27511;52.042;5.178;2022-12-29T00:18:59;14.10;99.90
41838;DHT22;27511;52.042;5.178;2022-12-29T00:21:25;13.90;99.90
41838;DHT22;27511;52.042;5.178;2022-12-29T00:24:12;14.10;99.90
41838;DHT22;27511;52.042;5.178;2022-12-29T00:26:58;14.20;99.90
41838;DHT22;27511;52.042;5.178;2022-12-29T00:29:43;14.10;99.90
41838;DHT22;27511;52.042;5.178;2022-12-29T00:32:27;14.20;99.90
41838;DHT22;27511;52.042;5.178;2022-12-29T00:35:12;14.10;99.90
41838;DHT22;27511;52.042;5.178;2022-12-29T00:37:40;14.10;99.90
41838;DHT22;27511;52.042;5.178;2022-12-29T00:40:25;14.10;99.90
41838;DHT22;27511;52.042;5.178;2022-12-29T00:43:10;14.10;99.90
41838;DHT22;27511;52.042;5.178;2022-12-29T00:45:54;14.10;99.90
41838;DHT22;27511;52.042;5.178;2022-12-29T00:48:19;14.20;99.90
41838;DHT22;27511;52.042;5.178;2022-12-29T00:51:05;14.10;99.90
41838;DHT22;27511;52.042;5.178;2022-12-29T00:53:31;14.20;99.90
41838;DHT22;27511;52.042;5.178;2022-12-29T00:55:56;14.10;99.90
41838;DHT22;27511;52.042;5.178;2022-12-29T00:58:22;14.10;99.90
41838;DHT22;27511;52.042;5.178;2022-12-29T01:00:47;14.20;99.90
41838;DHT22;27511;52.042;5.178;2022-12-29T01:03:13;14.30;99.90
41838;DHT22;27511;52.042;5.178;2022-12-29T01:05:38;14.40;99.90
41838;DHT22;27511;52.042;5.178;2022-12-29T01:08:04;14.20;99.90
41838;DHT22;27511;52.042;5.178;2022-12-29T01:10:29;14.20;99.90
41838;DHT22;27511;52.042;5.178;2022-12-29T01:12:55;14.10;99.90
41838;DHT22;27511;52.042;5.178;2022-12-29T01:15:20;14.00;99.90
41838;DHT22;27511;52.042;5.178;2022-12-29T01:17:46;13.90;99.90
41838;DHT22;27511;52.042;5.178;2022-12-29T01:20:12;13.90;99.90
41838;DHT22;27511;52.042;5.178;2022-12-29T01:22:38;13.90;99.90
41838;DHT22;27511;52.042;5.178;2022-12-29T01:25:04;13.90;99.90
41838;DHT22;27511;52.042;5.178;2022-12-29T01:27:29;13.80;99.90
41838;DHT22;27511;52.042;5.178;2022-12-29T01:29:55;13.80;99.90
41838;DHT22;27511;52.042;5.178;2022-12-29T01:32:20;13.70;99.90
41838;DHT22;27511;52.042;5.178;2022-12-29T01:34:46;13.50;99.90
41838;DHT22;27511;52.042;5.178;2022-12-29T01:37:11;13.60;99.90
41838;DHT22;27511;52.042;5.178;2022-12-29T01:39:36;13.50;99.90
41838;DHT22;27511;52.042;5.178;2022-12-29T01:42:02;13.60;99.90
41838;DHT22;27511;52.042;5.178;2022-12-29T01:47:12;13.60;99.90
41838;DHT22;27511;52.042;5.178;2022-12-29T01:49:38;13.50;99.90
41838;DHT22;27511;52.042;5.178;2022-12-29T01:52:04;13.40;99.90
41838;DHT22;27511;52.042;5.178;2022-12-29T01:54:41;13.30;99.90
41838;DHT22;27511;52.042;5.178;2022-12-29T01:57:08;13.40;99.90
41838;DHT22;27511;52.042;5.178;2022-12-29T01:59:36;13.50;99.90
41838;DHT22;27511;52.042;5.178;2022-12-29T02:02:03;13.60;99.90
41838;DHT22;27511;52.042;5.178;2022-12-29T02:04:29;13.40;99.90
41838;DHT22;27511;52.042;5.178;2022-12-29T02:06:57;13.50;99.90
41838;DHT22;27511;52.042;5.178;2022-12-29T02:09:24;13.60;99.90
41838;DHT22;27511;52.042;5.178;2022-12-29T02:11:51;13.40;99.90
41838;DHT22;27511;52.042;5.178;2022-12-29T02:14:16;13.50;99.90
41838;DHT22;27511;52.042;5.178;2022-12-29T02:16:46;13.50;99.90
41838;DHT22;27511;52.042;5.178;2022-12-29T02:19:39;13.50;99.90
41838;DHT22;27511;52.042;5.178;2022-12-29T02:22:20;13.50;99.90
41838;DHT22;27511;52.042;5.178;2022-12-29T02:30:07;13.60;99.90
41838;DHT22;27511;52.042;5.178;2022-12-29T02:33:34;13.50;99.90
41838;DHT22;27511;52.042;5.178;2022-12-29T02:40:47;13.50;99.90
41838;DHT22;27511;52.042;5.178;2022-12-29T02:43:20;13.40;99.90
41838;DHT22;27511;52.042;5.178;2022-12-29T02:48:20;13.50;99.90
41838;DHT22;27511;52.042;5.178;2022-12-29T02:50:59;13.50;99.90
41838;DHT22;27511;52.042;5.178;2022-12-29T02:53:25;13.40;99.90
41838;DHT22;27511;52.042;5.178;2022-12-29T02:56:10;13.50;99.90
41838;DHT22;27511;52.042;5.178;2022-12-29T02:58:36;13.60;99.90
41838;DHT22;27511;52.042;5.178;2022-12-29T03:01:21;13.60;99.90
41838;DHT22;27511;52.042;5.178;2022-12-29T03:04:08;13.50;99.90
41838;DHT22;27511;52.042;5.178;2022-12-29T03:12:23;13.50;99.90
41838;DHT22;27511;52.042;5.178;2022-12-29T03:14:48;13.40;99.90
41838;DHT22;27511;52.042;5.178;2022-12-29T03:17:38;13.30;99.90
41838;DHT22;27511;52.042;5.178;2022-12-29T03:20:06;13.30;99.90
41838;DHT22;27511;52.042;5.178;2022-12-29T03:22:34;13.40;99.90
41838;DHT22;27511;52.042;5.178;2022-12-29T03:25:04;13.50;99.90
41838;DHT22;27511;52.042;5.178;2022-12-29T03:27:34;13.50;99.90
41838;DHT22;27511;52.042;5.178;2022-12-29T03:30:02;13.40;99.90
41838;DHT22;27511;52.042;5.178;2022-12-29T03:32:31;13.50;99.90
41838;DHT22;27511;52.042;5.178;2022-12-29T03:34:57;13.50;99.90
41838;DHT22;27511;52.042;5.178;2022-12-29T03:37:24;13.40;99.90
41838;DHT22;27511;52.042;5.178;2022-12-29T03:39:51;13.50;99.90
41838;DHT22;27511;52.042;5.178;2022-12-29T03:42:18;13.30;99.90
41838;DHT22;27511;52.042;5.178;2022-12-29T03:44:44;13.40;99.90
41838;DHT22;27511;52.042;5.178;2022-12-29T03:47:10;13.30;99.90
41838;DHT22;27511;52.042;5.178;2022-12-29T03:49:36;13.30;99.90
41838;DHT22;27511;52.042;5.178;2022-12-29T03:52:02;13.30;99.90
41838;DHT22;27511;52.042;5.178;2022-12-29T03:54:27;13.30;99.90
41838;DHT22;27511;52.042;5.178;2022-12-29T03:56:52;13.20;99.90
41838;DHT22;27511;52.042;5.178;2022-12-29T03:59:18;13.20;99.90
41838;DHT22;27511;52.042;5.178;2022-12-29T04:01:43;13.20;99.90
41838;DHT22;27511;52.042;5.178;2022-12-29T04:04:09;13.30;99.90
41838;DHT22;27511;52.042;5.178;2022-12-29T04:06:34;13.30;99.90
41838;DHT22;27511;52.042;5.178;2022-12-29T04:09:00;13.20;99.90
41838;DHT22;27511;52.042;5.178;2022-12-29T04:11:26;13.00;99.90
41838;DHT22;27511;52.042;5.178;2022-12-29T04:13:51;13.10;99.90
41838;DHT22;27511;52.042;5.178;2022-12-29T04:16:17;13.20;99.90
41838;DHT22;27511;52.042;5.178;2022-12-29T04:18:43;13.20;99.90
41838;DHT22;27511;52.042;5.178;2022-12-29T04:21:08;13.10;99.90
41838;DHT22;27511;52.042;5.178;2022-12-29T04:23:35;13.00;99.90
41838;DHT22;27511;52.042;5.178;2022-12-29T04:26:00;13.00;99.90
41838;DHT22;27511;52.042;5.178;2022-12-29T04:28:26;13.00;99.90
41838;DHT22;27511;52.042;5.178;2022-12-29T04:30:52;12.90;99.90
41838;DHT22;27511;52.042;5.178;2022-12-29T04:33:18;13.00;99.90
41838;DHT22;27511;52.042;5.178;2022-12-29T04:35:43;12.90;99.90
41838;DHT22;27511;52.042;5.178;2022-12-29T04:38:09;12.90;99.90
41838;DHT22;27511;52.042;5.178;2022-12-29T04:40:34;13.00;99.90
41838;DHT22;27511;52.042;5.178;2022-12-29T04:43:00;13.00;99.90
41838;DHT22;27511;52.042;5.178;2022-12-29T04:45:25;13.00;99.90
41838;DHT22;27511;52.042;5.178;2022-12-29T04:47:51;13.00;99.90
41838;DHT22;27511;52.042;5.178;2022-12-29T04:50:16;13.10;99.90
41838;DHT22;27511;52.042;5.178;2022-12-29T04:52:42;13.00;99.90
41838;DHT22;27511;52.042;5.178;2022-12-29T04:55:07;13.00;99.90
41838;DHT22;27511;52.042;5.178;2022-12-29T04:57:33;12.90;99.90
41838;DHT22;27511;52.042;5.178;2022-12-29T04:59:58;12.90;99.90
41838;DHT22;27511;52.042;5.178;2022-12-29T05:02:24;13.00;99.90
41838;DHT22;27511;52.042;5.178;2022-12-29T05:04:49;13.00;99.90
41838;DHT22;27511;52.042;5.178;2022-12-29T05:07:15;13.00;99.90
41838;DHT22;27511;52.042;5.178;2022-12-29T05:09:40;12.80;99.90
41838;DHT22;27511;52.042;5.178;2022-12-29T05:12:06;12.70;99.90
41838;DHT22;27511;52.042;5.178;2022-12-29T05:14:32;12.70;99.90
41838;DHT22;27511;52.042;5.178;2022-12-29T05:16:57;12.70;99.90
41838;DHT22;27511;52.042;5.178;2022-12-29T05:19:23;12.70;99.90
41838;DHT22;27511;52.042;5.178;2022-12-29T05:21:48;12.70;99.90
41838;DHT22;27511;52.042;5.178;2022-12-29T05:24:14;12.70;99.90
41838;DHT22;27511;52.042;5.178;2022-12-29T05:26:40;12.70;99.90
41838;DHT22;27511;52.042;5.178;2022-12-29T05:29:06;12.70;99.90
41838;DHT22;27511;52.042;5.178;2022-12-29T05:31:31;12.80;99.90
41838;DHT22;27511;52.042;5.178;2022-12-29T05:33:57;12.80;99.90
41838;DHT22;27511;52.042;5.178;2022-12-29T05:36:22;12.80;99.90
41838;DHT22;27511;52.042;5.178;2022-12-29T05:38:47;12.70;99.90
41838;DHT22;27511;52.042;5.178;2022-12-29T05:41:13;12.80;99.90
41838;DHT22;27511;52.042;5.178;2022-12-29T05:43:38;12.80;99.90
41838;DHT22;27511;52.042;5.178;2022-12-29T05:46:04;12.80;99.90
41838;DHT22;27511;52.042;5.178;2022-12-29T05:48:29;12.80;99.90
41838;DHT22;27511;52.042;5.178;2022-12-29T05:50:55;12.80;99.90
41838;DHT22;27511;52.042;5.178;2022-12-29T05:53:20;12.70;99.90
41838;DHT22;27511;52.042;5.178;2022-12-29T05:55:46;12.70;99.90
41838;DHT22;27511;52.042;5.178;2022-12-29T05:58:12;12.80;99.90
41838;DHT22;27511;52.042;5.178;2022-12-29T06:00:37;12.80;99.90
41838;DHT22;27511;52.042;5.178;2022-12-29T06:03:03;12.70;99.90
41838;DHT22;27511;52.042;5.178;2022-12-29T06:05:28;12.70;99.90
41838;DHT22;27511;52.042;5.178;2022-12-29T06:07:54;12.60;99.90
41838;DHT22;27511;52.042;5.178;2022-12-29T06:10:19;12.60;99.90
41838;DHT22;27511;52.042;5.178;2022-12-29T06:12:45;12.70;99.90
41838;DHT22;27511;52.042;5.178;2022-12-29T06:15:11;12.80;99.90
41838;DHT22;27511;52.042;5.178;2022-12-29T06:17:36;12.70;99.90
41838;DHT22;27511;52.042;5.178;2022-12-29T06:20:02;12.60;99.90
41838;DHT22;27511;52.042;5.178;2022-12-29T06:22:28;12.60;99.90
41838;DHT22;27511;52.042;5.178;2022-12-29T06:24:53;12.70;99.90
41838;DHT22;27511;52.042;5.178;2022-12-29T06:27:19;12.70;99.90
41838;DHT22;27511;52.042;5.178;2022-12-29T06:29:44;12.70;99.90
41838;DHT22;27511;52.042;5.178;2022-12-29T06:32:10;12.70;99.90
41838;DHT22;27511;52.042;5.178;2022-12-29T06:34:35;12.60;99.90
41838;DHT22;27511;52.042;5.178;2022-12-29T06:37:01;12.60;99.90
41838;DHT22;27511;52.042;5.178;2022-12-29T06:39:27;12.50;99.90
41838;DHT22;27511;52.042;5.178;2022-12-29T06:41:52;12.50;99.90
41838;DHT22;27511;52.042;5.178;2022-12-29T06:44:19;12.50;99.90
41838;DHT22;27511;52.042;5.178;2022-12-29T06:46:45;12.50;99.90
41838;DHT22;27511;52.042;5.178;2022-12-29T06:49:10;12.50;99.90
41838;DHT22;27511;52.042;5.178;2022-12-29T06:51:36;12.50;99.90
41838;DHT22;27511;52.042;5.178;2022-12-29T06:54:01;12.50;99.90
41838;DHT22;27511;52.042;5.178;2022-12-29T06:56:27;12.50;99.90
41838;DHT22;27511;52.042;5.178;2022-12-29T06:58:52;12.40;99.90
41838;DHT22;27511;52.042;5.178;2022-12-29T07:01:18;12.50;99.90
41838;DHT22;27511;52.042;5.178;2022-12-29T07:03:43;12.30;99.90
41838;DHT22;27511;52.042;5.178;2022-12-29T07:06:09;12.10;99.90
41838;DHT22;27511;52.042;5.178;2022-12-29T07:08:34;11.90;99.90
41838;DHT22;27511;52.042;5.178;2022-12-29T07:11:00;11.80;99.90
41838;DHT22;27511;52.042;5.178;2022-12-29T07:13:25;11.80;99.90
41838;DHT22;27511;52.042;5.178;2022-12-29T07:15:51;11.80;99.90
41838;DHT22;27511;52.042;5.178;2022-12-29T07:18:16;11.90;99.90
41838;DHT22;27511;52.042;5.178;2022-12-29T07:20:41;11.90;99.90
41838;DHT22;27511;52.042;5.178;2022-12-29T07:23:07;11.80;99.90
41838;DHT22;27511;52.042;5.178;2022-12-29T07:25:33;11.80;99.90
41838;DHT22;27511;52.042;5.178;2022-12-29T07:28:00;11.80;99.90
41838;DHT22;27511;52.042;5.178;2022-12-29T07:30:25;11.80;99.90
41838;DHT22;27511;52.042;5.178;2022-12-29T07:32:51;11.90;99.90
41838;DHT22;27511;52.042;5.178;2022-12-29T07:35:16;11.90;99.90
41838;DHT22;27511;52.042;5.178;2022-12-29T07:37:42;11.80;99.90
41838;DHT22;27511;52.042;5.178;2022-12-29T07:40:08;11.80;99.90
41838;DHT22;27511;52.042;5.178;2022-12-29T07:42:34;11.90;99.90
41838;DHT22;27511;52.042;5.178;2022-12-29T07:44:59;11.90;99.90
41838;DHT22;27511;52.042;5.178;2022-12-29T07:47:25;12.00;99.90
41838;DHT22;27511;52.042;5.178;2022-12-29T07:49:50;12.00;99.90
41838;DHT22;27511;52.042;5.178;2022-12-29T07:52:16;12.10;99.90
41838;DHT22;27511;52.042;5.178;2022-12-29T07:54:42;12.00;99.90
41838;DHT22;27511;52.042;5.178;2022-12-29T07:57:07;11.90;99.90
41838;DHT22;27511;52.042;5.178;2022-12-29T07:59:33;12.10;99.90
41838;DHT22;27511;52.042;5.178;2022-12-29T08:01:58;12.10;99.90
41838;DHT22;27511;52.042;5.178;2022-12-29T08:04:23;12.10;99.90
41838;DHT22;27511;52.042;5.178;2022-12-29T08:06:49;12.10;99.90
41838;DHT22;27511;52.042;5.178;2022-12-29T08:09:14;12.20;99.90
41838;DHT22;27511;52.042;5.178;2022-12-29T08:11:40;12.20;99.90
41838;DHT22;27511;52.042;5.178;2022-12-29T08:14:06;12.20;99.90
41838;DHT22;27511;52.042;5.178;2022-12-29T08:16:31;12.40;99.90
41838;DHT22;27511;52.042;5.178;2022-12-29T08:18:57;12.50;99.90
41838;DHT22;27511;52.042;5.178;2022-12-29T08:21:24;12.40;99.90
41838;DHT22;27511;52.042;5.178;2022-12-29T08:23:49;12.50;99.90
41838;DHT22;27511;52.042;5.178;2022-12-29T08:26:15;12.40;99.90
41838;DHT22;27511;52.042;5.178;2022-12-29T08:28:40;12.30;99.90
41838;DHT22;27511;52.042;5.178;2022-12-29T08:31:06;12.40;99.90
41838;DHT22;27511;52.042;5.178;2022-12-29T08:33:31;12.20;99.90
41838;DHT22;27511;52.042;5.178;2022-12-29T08:36:00;12.40;99.90
41838;DHT22;27511;52.042;5.178;2022-12-29T08:38:27;12.30;99.90
41838;DHT22;27511;52.042;5.178;2022-12-29T08:40:53;12.40;99.90
41838;DHT22;27511;52.042;5.178;2022-12-29T08:43:18;12.40;99.90
41838;DHT22;27511;52.042;5.178;2022-12-29T08:45:43;12.50;99.90
41838;DHT22;27511;52.042;5.178;2022-12-29T08:48:09;12.50;99.90
41838;DHT22;27511;52.042;5.178;2022-12-29T08:50:34;12.50;99.90
41838;DHT22;27511;52.042;5.178;2022-12-29T08:53:00;12.60;99.90
41838;DHT22;27511;52.042;5.178;2022-12-29T08:55:25;12.40;99.90
41838;DHT22;27511;52.042;5.178;2022-12-29T08:57:51;12.30;99.90
41838;DHT22;27511;52.042;5.178;2022-12-29T09:00:17;12.30;99.90
41838;DHT22;27511;52.042;5.178;2022-12-29T09:02:43;12.40;99.90
41838;DHT22;27511;52.042;5.178;2022-12-29T09:05:09;12.30;99.90
41838;DHT22;27511;52.042;5.178;2022-12-29T09:07:35;12.30;99.90
41838;DHT22;27511;52.042;5.178;2022-12-29T09:10:00;12.20;99.90
41838;DHT22;27511;52.042;5.178;2022-12-29T09:12:26;12.20;99.90
41838;DHT22;27511;52.042;5.178;2022-12-29T09:14:51;12.00;99.90
41838;DHT22;27511;52.042;5.178;2022-12-29T09:17:17;11.90;99.90
41838;DHT22;27511;52.042;5.178;2022-12-29T09:20:01;12.10;99.90
41838;DHT22;27511;52.042;5.178;2022-12-29T09:22:26;12.20;99.90
41838;DHT22;27511;52.042;5.178;2022-12-29T09:24:52;12.10;99.90
41838;DHT22;27511;52.042;5.178;2022-12-29T09:27:17;12.00;99.90
41838;DHT22;27511;52.042;5.178;2022-12-29T09:29:42;12.00;99.90
41838;DHT22;27511;52.042;5.178;2022-12-29T09:32:08;12.00;99.90
41838;DHT22;27511;52.042;5.178;2022-12-29T09:34:34;12.00;99.90
41838;DHT22;27511;52.042;5.178;2022-12-29T09:36:59;12.10;99.90
41838;DHT22;27511;52.042;5.178;2022-12-29T09:39:25;12.10;99.90
41838;DHT22;27511;52.042;5.178;2022-12-29T09:44:18;11.90;99.90
41838;DHT22;27511;52.042;5.178;2022-12-29T09:46:45;11.90;99.90
41838;DHT22;27511;52.042;5.178;2022-12-29T09:49:31;11.90;99.90
41838;DHT22;27511;52.042;5.178;2022-12-29T09:52:03;11.90;99.90
41838;DHT22;27511;52.042;5.178;2022-12-29T09:56:55;11.80;99.90
41838;DHT22;27511;52.042;5.178;2022-12-29T09:59:22;11.70;99.90
41838;DHT22;27511;52.042;5.178;2022-12-29T10:02:36;11.90;99.90
41838;DHT22;27511;52.042;5.178;2022-12-29T10:04:35;12.00;99.90
41838;DHT22;27511;52.042;5.178;2022-12-29T10:07:02;12.00;99.90
41838;DHT22;27511;52.042;5.178;2022-12-29T10:17:38;12.00;99.90
41838;DHT22;27511;52.042;5.178;2022-12-29T10:22:54;11.80;99.90
41838;DHT22;27511;52.042;5.178;2022-12-29T10:25:25;11.90;99.90
41838;DHT22;27511;52.042;5.178;2022-12-29T10:27:51;11.90;99.90
41838;DHT22;27511;52.042;5.178;2022-12-29T10:30:18;11.90;99.90
41838;DHT22;27511;52.042;5.178;2022-12-29T10:32:45;11.80;99.90
41838;DHT22;27511;52.042;5.178;2022-12-29T10:35:18;11.70;99.90
41838;DHT22;27511;52.042;5.178;2022-12-29T10:37:52;11.70;99.90
41838;DHT22;27511;52.042;5.178;2022-12-29T10:42:50;11.90;99.90
41838;DHT22;27511;52.042;5.178;2022-12-29T10:45:17;11.80;99.90
41838;DHT22;27511;52.042;5.178;2022-12-29T10:47:51;11.90;99.90
41838;DHT22;27511;52.042;5.178;2022-12-29T10:50:18;11.80;99.90
41838;DHT22;27511;52.042;5.178;2022-12-29T10:52:44;11.80;99.90
41838;DHT22;27511;52.042;5.178;2022-12-29T10:55:12;11.90;99.90
41838;DHT22;27511;52.042;5.178;2022-12-29T10:57:45;11.90;99.90
41838;DHT22;27511;52.042;5.178;2022-12-29T11:03:25;12.10;99.90
41838;DHT22;27511;52.042;5.178;2022-12-29T11:05:37;12.20;99.90
41838;DHT22;27511;52.042;5.178;2022-12-29T11:08:13;12.20;99.90
41838;DHT22;27511;52.042;5.178;2022-12-29T11:10:40;12.30;99.90
41838;DHT22;27511;52.042;5.178;2022-12-29T11:13:15;12.40;99.90
41838;DHT22;27511;52.042;5.178;2022-12-29T11:18:07;12.30;99.90
41838;DHT22;27511;52.042;5.178;2022-12-29T11:20:42;12.30;99.90
41838;DHT22;27511;52.042;5.178;2022-12-29T11:28:40;12.20;99.90
41838;DHT22;27511;52.042;5.178;2022-12-29T11:31:07;12.10;99.90
41838;DHT22;27511;52.042;5.178;2022-12-29T11:33:34;12.10;99.90
41838;DHT22;27511;52.042;5.178;2022-12-29T11:36:14;12.00;99.90
41838;DHT22;27511;52.042;5.178;2022-12-29T11:38:41;12.00;99.90
41838;DHT22;27511;52.042;5.178;2022-12-29T11:41:10;12.00;99.90
41838;DHT22;27511;52.042;5.178;2022-12-29T11:43:37;12.10;99.90
41838;DHT22;27511;52.042;5.178;2022-12-29T11:46:03;12.20;99.90
41838;DHT22;27511;52.042;5.178;2022-12-29T11:48:31;12.20;99.90
41838;DHT22;27511;52.042;5.178;2022-12-29T11:50:58;12.20;99.90
41838;DHT22;27511;52.042;5.178;2022-12-29T11:53:30;12.20;99.90
41838;DHT22;27511;52.042;5.178;2022-12-29T11:56:16;12.00;99.90
41838;DHT22;27511;52.042;5.178;2022-12-29T11:58:42;12.10;99.90
41838;DHT22;27511;52.042;5.178;2022-12-29T12:01:13;12.10;99.90
41838;DHT22;27511;52.042;5.178;2022-12-29T12:03:44;12.20;99.90
41838;DHT22;27511;52.042;5.178;2022-12-29T12:06:12;12.40;99.90
41838;DHT22;27511;52.042;5.178;2022-12-29T12:08:53;12.40;99.90
41838;DHT22;27511;52.042;5.178;2022-12-29T12:11:24;12.50;99.90
41838;DHT22;27511;52.042;5.178;2022-12-29T12:13:59;12.60;99.90
41838;DHT22;27511;52.042;5.178;2022-12-29T12:16:27;12.70;99.90
41838;DHT22;27511;52.042;5.178;2022-12-29T12:18:57;12.70;99.90
41838;DHT22;27511;52.042;5.178;2022-12-29T12:21:38;12.70;99.90
41838;DHT22;27511;52.042;5.178;2022-12-29T12:24:11;12.70;99.90
41838;DHT22;27511;52.042;5.178;2022-12-29T12:26:53;12.80;99.90
41838;DHT22;27511;52.042;5.178;2022-12-29T12:31:59;12.50;99.90
41838;DHT22;27511;52.042;5.178;2022-12-29T12:34:28;12.60;99.90
41838;DHT22;27511;52.042;5.178;2022-12-29T12:42:36;12.70;99.90
41838;DHT22;27511;52.042;5.178;2022-12-29T12:56:27;12.80;99.90
41838;DHT22;27511;52.042;5.178;2022-12-29T12:59:03;12.80;99.90
41838;DHT22;27511;52.042;5.178;2022-12-29T13:01:38;12.80;99.90
41838;DHT22;27511;52.042;5.178;2022-12-29T13:09:18;13.00;99.90
41838;DHT22;27511;52.042;5.178;2022-12-29T13:22:47;12.70;99.90
41838;DHT22;27511;52.042;5.178;2022-12-29T13:28:01;12.80;99.90
41838;DHT22;27511;52.042;5.178;2022-12-29T13:30:33;12.70;99.90
41838;DHT22;27511;52.042;5.178;2022-12-29T13:33:16;12.70;99.90
41838;DHT22;27511;52.042;5.178;2022-12-29T13:35:52;12.80;99.90
41838;DHT22;27511;52.042;5.178;2022-12-29T13:41:01;12.90;99.90
41838;DHT22;27511;52.042;5.178;2022-12-29T13:43:27;12.90;99.90
41838;DHT22;27511;52.042;5.178;2022-12-29T13:45:58;12.90;99.90
41838;DHT22;27511;52.042;5.178;2022-12-29T13:48:28;12.80;99.90
41838;DHT22;27511;52.042;5.178;2022-12-29T13:50:59;12.80;99.90
41838;DHT22;27511;52.042;5.178;2022-12-29T13:56:04;12.60;99.90
41838;DHT22;27511;52.042;5.178;2022-12-29T14:00:58;12.40;99.90
41838;DHT22;27511;52.042;5.178;2022-12-29T14:08:48;12.10;99.90
41838;DHT22;27511;52.042;5.178;2022-12-29T14:11:15;11.90;99.90
41838;DHT22;27511;52.042;5.178;2022-12-29T14:13:45;11.90;99.90
41838;DHT22;27511;52.042;5.178;2022-12-29T14:16:21;11.70;99.90
41838;DHT22;27511;52.042;5.178;2022-12-29T14:18:49;11.70;99.90
41838;DHT22;27511;52.042;5.178;2022-12-29T14:23:41;11.60;99.90
41838;DHT22;27511;52.042;5.178;2022-12-29T14:28:54;11.50;99.90
41838;DHT22;27511;52.042;5.178;2022-12-29T14:36:40;11.60;99.90
41838;DHT22;27511;52.042;5.178;2022-12-29T14:42:03;11.50;99.90
41838;DHT22;27511;52.042;5.178;2022-12-29T14:44:29;11.40;99.90
41838;DHT22;27511;52.042;5.178;2022-12-29T14:46:56;11.50;99.90
41838;DHT22;27511;52.042;5.178;2022-12-29T14:49:23;11.40;99.90
41838;DHT22;27511;52.042;5.178;2022-12-29T14:51:51;11.50;99.90
41838;DHT22;27511;52.042;5.178;2022-12-29T14:56:57;11.70;99.90
41838;DHT22;27511;52.042;5.178;2022-12-29T14:59:23;11.80;99.90
41838;DHT22;27511;52.042;5.178;2022-12-29T15:01:50;11.80;99.90
41838;DHT22;27511;52.042;5.178;2022-12-29T15:04:21;11.80;99.90
41838;DHT22;27511;52.042;5.178;2022-12-29T15:06:47;11.80;99.90
41838;DHT22;27511;52.042;5.178;2022-12-29T15:09:58;11.80;99.90
41838;DHT22;27511;52.042;5.178;2022-12-29T15:14:49;11.70;99.90
41838;DHT22;27511;52.042;5.178;2022-12-29T15:17:28;11.80;99.90
41838;DHT22;27511;52.042;5.178;2022-12-29T15:19:54;11.80;99.90
41838;DHT22;27511;52.042;5.178;2022-12-29T15:22:20;11.80;99.90
41838;DHT22;27511;52.042;5.178;2022-12-29T15:24:46;11.90;99.90
41838;DHT22;27511;52.042;5.178;2022-12-29T15:27:15;11.90;99.90
41838;DHT22;27511;52.042;5.178;2022-12-29T15:29:41;11.80;99.90
41838;DHT22;27511;52.042;5.178;2022-12-29T15:32:26;11.70;99.90
41838;DHT22;27511;52.042;5.178;2022-12-29T15:34:53;11.70;99.90
41838;DHT22;27511;52.042;5.178;2022-12-29T15:37:20;11.70;99.90
41838;DHT22;27511;52.042;5.178;2022-12-29T15:39:46;11.70;99.90
41838;DHT22;27511;52.042;5.178;2022-12-29T15:44:46;11.70;99.90
41838;DHT22;27511;52.042;5.178;2022-12-29T15:47:14;11.80;99.90
41838;DHT22;27511;52.042;5.178;2022-12-29T15:49:41;11.80;99.90
41838;DHT22;27511;52.042;5.178;2022-12-29T15:52:08;11.70;99.90
41838;DHT22;27511;52.042;5.178;2022-12-29T15:54:33;11.90;99.90
41838;DHT22;27511;52.042;5.178;2022-12-29T15:56:59;11.80;99.90
41838;DHT22;27511;52.042;5.178;2022-12-29T15:59:29;11.80;99.90
41838;DHT22;27511;52.042;5.178;2022-12-29T16:01:55;11.90;99.90
41838;DHT22;27511;52.042;5.178;2022-12-29T16:04:21;11.90;99.90
41838;DHT22;27511;52.042;5.178;2022-12-29T16:06:57;11.60;99.90
41838;DHT22;27511;52.042;5.178;2022-12-29T16:09:32;11.50;99.90
41838;DHT22;27511;52.042;5.178;2022-12-29T16:12:00;11.60;99.90
41838;DHT22;27511;52.042;5.178;2022-12-29T16:14:30;11.70;99.90
41838;DHT22;27511;52.042;5.178;2022-12-29T16:16:57;11.70;99.90
41838;DHT22;27511;52.042;5.178;2022-12-29T16:19:24;11.70;99.90
41838;DHT22;27511;52.042;5.178;2022-12-29T16:21:52;11.70;99.90
41838;DHT22;27511;52.042;5.178;2022-12-29T16:24:19;11.60;99.90
41838;DHT22;27511;52.042;5.178;2022-12-29T16:26:49;11.50;99.90
41838;DHT22;27511;52.042;5.178;2022-12-29T16:29:16;11.30;99.90
41838;DHT22;27511;52.042;5.178;2022-12-29T16:31:50;11.30;99.90
41838;DHT22;27511;52.042;5.178;2022-12-29T16:36:55;11.30;99.90
41838;DHT22;27511;52.042;5.178;2022-12-29T16:39:23;11.40;99.90
41838;DHT22;27511;52.042;5.178;2022-12-29T16:41:50;11.30;99.90
41838;DHT22;27511;52.042;5.178;2022-12-29T16:44:23;11.20;99.90
41838;DHT22;27511;52.042;5.178;2022-12-29T16:49:20;11.20;99.90
41838;DHT22;27511;52.042;5.178;2022-12-29T16:51:46;11.20;99.90
41838;DHT22;27511;52.042;5.178;2022-12-29T16:54:18;11.20;99.90
41838;DHT22;27511;52.042;5.178;2022-12-29T16:56:44;11.20;99.90
41838;DHT22;27511;52.042;5.178;2022-12-29T16:59:23;11.20;99.90
41838;DHT22;27511;52.042;5.178;2022-12-29T17:01:50;11.20;99.90
41838;DHT22;27511;52.042;5.178;2022-12-29T17:04:16;11.30;99.90
41838;DHT22;27511;52.042;5.178;2022-12-29T17:06:41;11.20;99.90
41838;DHT22;27511;52.042;5.178;2022-12-29T17:09:23;11.20;99.90
41838;DHT22;27511;52.042;5.178;2022-12-29T17:11:53;11.10;99.90
41838;DHT22;27511;52.042;5.178;2022-12-29T17:14:21;11.10;99.90
41838;DHT22;27511;52.042;5.178;2022-12-29T17:16:48;11.10;99.90
41838;DHT22;27511;52.042;5.178;2022-12-29T17:19:17;11.10;99.90
41838;DHT22;27511;52.042;5.178;2022-12-29T17:21:43;11.00;99.90
41838;DHT22;27511;52.042;5.178;2022-12-29T17:24:18;11.00;99.90
41838;DHT22;27511;52.042;5.178;2022-12-29T17:26:46;11.00;99.90
41838;DHT22;27511;52.042;5.178;2022-12-29T17:29:16;11.00;99.90
41838;DHT22;27511;52.042;5.178;2022-12-29T17:31:43;11.10;99.90
41838;DHT22;27511;52.042;5.178;2022-12-29T17:34:10;10.90;99.90
41838;DHT22;27511;52.042;5.178;2022-12-29T17:36:37;10.80;99.90
41838;DHT22;27511;52.042;5.178;2022-12-29T17:39:04;10.90;99.90
41838;DHT22;27511;52.042;5.178;2022-12-29T17:41:29;10.90;99.90
41838;DHT22;27511;52.042;5.178;2022-12-29T17:43:55;10.90;99.90
41838;DHT22;27511;52.042;5.178;2022-12-29T17:46:20;10.80;99.90